sensor_id;sensor_type;location;lat;lon;timestamp;temperature;humidity
17988;DHT22;9119;50.932;5.342;2022-12-07T00:01:12;5.40;99.90
17988;DHT22;9119;50.932;5.342;2022-12-07T00:03:39;5.40;99.90
17988;DHT22;9119;50.932;5.342;2022-12-07T00:06:07;5.30;99.90
17988;DHT22;9119;50.932;5.342;2022-12-07T00:08:34;5.30;99.90
17988;DHT22;9119;50.932;5.342;2022-12-07T00:11:04;5.30;99.90
17988;DHT22;9119;50.932;5.342;2022-12-07T00:13:32;5.30;99.90
17988;DHT22;9119;50.932;5.342;2022-12-07T00:16:07;5.50;99.90
17988;DHT22;9119;50.932;5.342;2022-12-07T00:18:32;5.30;99.90
17988;DHT22;9119;50.932;5.342;2022-12-07T00:21:09;5.40;99.90
17988;DHT22;9119;50.932;5.342;2022-12-07T00:23:35;5.40;99.90
17988;DHT22;9119;50.932;5.342;2022-12-07T00:26:09;5.40;99.90
17988;DHT22;9119;50.932;5.342;2022-12-07T00:28:36;5.30;99.90
17988;DHT22;9119;50.932;5.342;2022-12-07T00:31:07;5.30;99.90
17988;DHT22;9119;50.932;5.342;2022-12-07T00:33:34;5.40;99.90
17988;DHT22;9119;50.932;5.342;2022-12-07T00:36:00;5.30;99.90
17988;DHT22;9119;50.932;5.342;2022-12-07T00:38:32;5.40;99.90
17988;DHT22;9119;50.932;5.342;2022-12-07T00:41:00;5.30;99.90
17988;DHT22;9119;50.932;5.342;2022-12-07T00:43:27;5.30;99.90
17988;DHT22;9119;50.932;5.342;2022-12-07T00:45:53;5.20;99.90
17988;DHT22;9119;50.932;5.342;2022-12-07T00:48:20;5.20;99.90
17988;DHT22;9119;50.932;5.342;2022-12-07T00:50:45;5.30;99.90
17988;DHT22;9119;50.932;5.342;2022-12-07T00:53:11;5.20;99.90
17988;DHT22;9119;50.932;5.342;2022-12-07T00:55:37;5.30;99.90
17988;DHT22;9119;50.932;5.342;2022-12-07T00:58:03;5.20;99.90
17988;DHT22;9119;50.932;5.342;2022-12-07T01:00:29;5.20;99.90
17988;DHT22;9119;50.932;5.342;2022-12-07T01:02:55;5.20;99.90
17988;DHT22;9119;50.932;5.342;2022-12-07T01:05:21;5.30;99.90
17988;DHT22;9119;50.932;5.342;2022-12-07T01:07:47;5.20;99.90
17988;DHT22;9119;50.932;5.342;2022-12-07T01:10:14;5.30;99.90
17988;DHT22;9119;50.932;5.342;2022-12-07T01:12:40;5.20;99.90
17988;DHT22;9119;50.932;5.342;2022-12-07T01:15:07;5.20;99.90
17988;DHT22;9119;50.932;5.342;2022-12-07T01:17:34;5.20;99.90
17988;DHT22;9119;50.932;5.342;2022-12-07T01:20:00;5.20;99.90
17988;DHT22;9119;50.932;5.342;2022-12-07T01:22:26;5.30;99.90
17988;DHT22;9119;50.932;5.342;2022-12-07T01:24:51;5.20;99.90
17988;DHT22;9119;50.932;5.342;2022-12-07T01:27:17;5.20;99.90
17988;DHT22;9119;50.932;5.342;2022-12-07T01:29:43;5.20;99.90
17988;DHT22;9119;50.932;5.342;2022-12-07T01:32:08;5.20;99.90
17988;DHT22;9119;50.932;5.342;2022-12-07T01:34:34;5.30;99.90
17988;DHT22;9119;50.932;5.342;2022-12-07T01:37:00;5.30;99.90
17988;DHT22;9119;50.932;5.342;2022-12-07T01:39:25;5.30;99.90
17988;DHT22;9119;50.932;5.342;2022-12-07T01:41:52;5.30;99.90
17988;DHT22;9119;50.932;5.342;2022-12-07T01:44:22;5.30;99.90
17988;DHT22;9119;50.932;5.342;2022-12-07T01:46:56;5.30;99.90
17988;DHT22;9119;50.932;5.342;2022-12-07T01:49:38;5.30;99.90
17988;DHT22;9119;50.932;5.342;2022-12-07T01:52:18;5.40;99.90
17988;DHT22;9119;50.932;5.342;2022-12-07T01:54:46;5.30;99.90
17988;DHT22;9119;50.932;5.342;2022-12-07T01:57:15;5.40;99.90
17988;DHT22;9119;50.932;5.342;2022-12-07T01:59:42;5.40;99.90
17988;DHT22;9119;50.932;5.342;2022-12-07T02:02:18;5.40;99.90
17988;DHT22;9119;50.932;5.342;2022-12-07T02:04:44;5.30;99.90
17988;DHT22;9119;50.932;5.342;2022-12-07T02:07:10;5.30;99.90
17988;DHT22;9119;50.932;5.342;2022-12-07T02:09:36;5.20;99.90
17988;DHT22;9119;50.932;5.342;2022-12-07T02:12:02;5.20;99.90
17988;DHT22;9119;50.932;5.342;2022-12-07T02:14:28;5.20;99.90
17988;DHT22;9119;50.932;5.342;2022-12-07T02:22:07;5.40;99.90
17988;DHT22;9119;50.932;5.342;2022-12-07T02:27:36;5.10;99.90
17988;DHT22;9119;50.932;5.342;2022-12-07T02:30:21;5.20;99.90
17988;DHT22;9119;50.932;5.342;2022-12-07T02:33:15;5.10;99.90
17988;DHT22;9119;50.932;5.342;2022-12-07T02:35:48;5.20;99.90
17988;DHT22;9119;50.932;5.342;2022-12-07T02:38:21;5.20;99.90
17988;DHT22;9119;50.932;5.342;2022-12-07T02:40:54;5.20;99.90
17988;DHT22;9119;50.932;5.342;2022-12-07T02:43:26;5.30;99.90
17988;DHT22;9119;50.932;5.342;2022-12-07T02:45:56;5.40;99.90
17988;DHT22;9119;50.932;5.342;2022-12-07T02:48:24;5.20;99.90
17988;DHT22;9119;50.932;5.342;2022-12-07T02:50:53;5.20;99.90
17988;DHT22;9119;50.932;5.342;2022-12-07T02:53:37;5.20;99.90
17988;DHT22;9119;50.932;5.342;2022-12-07T02:59:02;5.20;99.90
17988;DHT22;9119;50.932;5.342;2022-12-07T03:01:52;5.20;99.90
17988;DHT22;9119;50.932;5.342;2022-12-07T03:04:27;5.10;99.90
17988;DHT22;9119;50.932;5.342;2022-12-07T03:07:06;5.10;99.90
17988;DHT22;9119;50.932;5.342;2022-12-07T03:09:43;5.10;99.90
17988;DHT22;9119;50.932;5.342;2022-12-07T03:12:14;5.10;99.90
17988;DHT22;9119;50.932;5.342;2022-12-07T03:14:50;5.10;99.90
17988;DHT22;9119;50.932;5.342;2022-12-07T03:17:21;5.30;99.90
17988;DHT22;9119;50.932;5.342;2022-12-07T03:19:49;5.30;99.90
17988;DHT22;9119;50.932;5.342;2022-12-07T03:22:17;5.40;99.90
17988;DHT22;9119;50.932;5.342;2022-12-07T03:24:54;5.20;99.90
17988;DHT22;9119;50.932;5.342;2022-12-07T03:29:54;5.20;99.90
17988;DHT22;9119;50.932;5.342;2022-12-07T03:32:27;5.20;99.90
17988;DHT22;9119;50.932;5.342;2022-12-07T03:37:46;5.10;99.90
17988;DHT22;9119;50.932;5.342;2022-12-07T03:40:37;5.10;99.90
17988;DHT22;9119;50.932;5.342;2022-12-07T03:43:05;5.10;99.90
17988;DHT22;9119;50.932;5.342;2022-12-07T03:45:43;5.00;99.90
17988;DHT22;9119;50.932;5.342;2022-12-07T03:48:32;5.00;99.90
17988;DHT22;9119;50.932;5.342;2022-12-07T03:51:18;5.00;99.90
17988;DHT22;9119;50.932;5.342;2022-12-07T03:53:54;5.00;99.90
17988;DHT22;9119;50.932;5.342;2022-12-07T03:56:24;5.00;99.90
17988;DHT22;9119;50.932;5.342;2022-12-07T03:58:51;5.10;99.90
17988;DHT22;9119;50.932;5.342;2022-12-07T04:01:17;5.10;99.90
17988;DHT22;9119;50.932;5.342;2022-12-07T04:03:43;5.10;99.90
17988;DHT22;9119;50.932;5.342;2022-12-07T04:06:09;5.20;99.90
17988;DHT22;9119;50.932;5.342;2022-12-07T04:08:35;5.20;99.90
17988;DHT22;9119;50.932;5.342;2022-12-07T04:11:01;5.20;99.90
17988;DHT22;9119;50.932;5.342;2022-12-07T04:13:27;5.20;99.90
17988;DHT22;9119;50.932;5.342;2022-12-07T04:15:52;5.20;99.90
17988;DHT22;9119;50.932;5.342;2022-12-07T04:18:18;5.20;99.90
17988;DHT22;9119;50.932;5.342;2022-12-07T04:20:45;5.10;99.90
17988;DHT22;9119;50.932;5.342;2022-12-07T04:23:11;5.10;99.90
17988;DHT22;9119;50.932;5.342;2022-12-07T04:25:36;5.00;99.90
17988;DHT22;9119;50.932;5.342;2022-12-07T04:28:02;5.00;99.90
17988;DHT22;9119;50.932;5.342;2022-12-07T04:30:28;4.90;99.90
17988;DHT22;9119;50.932;5.342;2022-12-07T04:32:53;4.90;99.90
17988;DHT22;9119;50.932;5.342;2022-12-07T04:35:19;4.80;99.90
17988;DHT22;9119;50.932;5.342;2022-12-07T04:37:44;5.00;99.90
17988;DHT22;9119;50.932;5.342;2022-12-07T04:40:11;4.80;99.90
17988;DHT22;9119;50.932;5.342;2022-12-07T04:42:38;4.80;99.90
17988;DHT22;9119;50.932;5.342;2022-12-07T04:45:04;4.70;99.90
17988;DHT22;9119;50.932;5.342;2022-12-07T04:47:30;4.70;99.90
17988;DHT22;9119;50.932;5.342;2022-12-07T04:49:55;4.70;99.90
17988;DHT22;9119;50.932;5.342;2022-12-07T04:52:21;4.70;99.90
17988;DHT22;9119;50.932;5.342;2022-12-07T04:54:47;4.70;99.90
17988;DHT22;9119;50.932;5.342;2022-12-07T04:57:19;4.70;99.90
17988;DHT22;9119;50.932;5.342;2022-12-07T04:59:44;4.70;99.90
17988;DHT22;9119;50.932;5.342;2022-12-07T05:02:10;4.80;99.90
17988;DHT22;9119;50.932;5.342;2022-12-07T05:04:35;4.80;99.90
17988;DHT22;9119;50.932;5.342;2022-12-07T05:07:01;4.80;99.90
17988;DHT22;9119;50.932;5.342;2022-12-07T05:09:27;4.70;99.90
17988;DHT22;9119;50.932;5.342;2022-12-07T05:11:52;4.70;99.90
17988;DHT22;9119;50.932;5.342;2022-12-07T05:14:19;4.70;99.90
17988;DHT22;9119;50.932;5.342;2022-12-07T05:16:48;4.70;99.90
17988;DHT22;9119;50.932;5.342;2022-12-07T05:19:14;4.70;99.90
17988;DHT22;9119;50.932;5.342;2022-12-07T05:21:40;4.70;99.90
17988;DHT22;9119;50.932;5.342;2022-12-07T05:24:07;4.70;99.90
17988;DHT22;9119;50.932;5.342;2022-12-07T05:26:33;4.60;99.90
17988;DHT22;9119;50.932;5.342;2022-12-07T05:28:59;4.60;99.90
17988;DHT22;9119;50.932;5.342;2022-12-07T05:31:27;4.60;99.90
17988;DHT22;9119;50.932;5.342;2022-12-07T05:33:53;4.70;99.90
17988;DHT22;9119;50.932;5.342;2022-12-07T05:36:18;4.60;99.90
17988;DHT22;9119;50.932;5.342;2022-12-07T05:38:44;4.60;99.90
17988;DHT22;9119;50.932;5.342;2022-12-07T05:41:14;4.60;99.90
17988;DHT22;9119;50.932;5.342;2022-12-07T05:43:59;4.60;99.90
17988;DHT22;9119;50.932;5.342;2022-12-07T05:46:24;4.50;99.90
17988;DHT22;9119;50.932;5.342;2022-12-07T05:48:51;4.60;99.90
17988;DHT22;9119;50.932;5.342;2022-12-07T05:51:16;4.60;99.90
17988;DHT22;9119;50.932;5.342;2022-12-07T05:53:42;4.60;99.90
17988;DHT22;9119;50.932;5.342;2022-12-07T05:56:08;4.70;99.90
17988;DHT22;9119;50.932;5.342;2022-12-07T05:58:33;4.60;99.90
17988;DHT22;9119;50.932;5.342;2022-12-07T06:01:17;4.60;99.90
17988;DHT22;9119;50.932;5.342;2022-12-07T06:03:43;4.60;99.90
17988;DHT22;9119;50.932;5.342;2022-12-07T06:06:10;4.60;99.90
17988;DHT22;9119;50.932;5.342;2022-12-07T06:08:35;4.70;99.90
17988;DHT22;9119;50.932;5.342;2022-12-07T06:11:01;4.70;99.90
17988;DHT22;9119;50.932;5.342;2022-12-07T06:13:45;4.70;99.90
17988;DHT22;9119;50.932;5.342;2022-12-07T06:16:11;4.70;99.90
17988;DHT22;9119;50.932;5.342;2022-12-07T06:18:36;4.70;99.90
17988;DHT22;9119;50.932;5.342;2022-12-07T06:21:02;4.70;99.90
17988;DHT22;9119;50.932;5.342;2022-12-07T06:23:28;4.70;99.90
17988;DHT22;9119;50.932;5.342;2022-12-07T06:25:54;4.90;99.90
17988;DHT22;9119;50.932;5.342;2022-12-07T06:28:19;4.70;99.90
17988;DHT22;9119;50.932;5.342;2022-12-07T06:30:45;4.70;99.90
17988;DHT22;9119;50.932;5.342;2022-12-07T06:33:10;4.90;99.90
17988;DHT22;9119;50.932;5.342;2022-12-07T06:35:36;4.70;99.90
17988;DHT22;9119;50.932;5.342;2022-12-07T06:38:02;4.60;99.90
17988;DHT22;9119;50.932;5.342;2022-12-07T06:40:28;4.60;99.90
17988;DHT22;9119;50.932;5.342;2022-12-07T06:42:53;4.60;99.90
17988;DHT22;9119;50.932;5.342;2022-12-07T06:45:19;4.70;99.90
17988;DHT22;9119;50.932;5.342;2022-12-07T06:47:45;4.70;99.90
17988;DHT22;9119;50.932;5.342;2022-12-07T06:50:10;4.70;99.90
17988;DHT22;9119;50.932;5.342;2022-12-07T06:52:36;4.80;99.90
17988;DHT22;9119;50.932;5.342;2022-12-07T06:55:02;4.70;99.90
17988;DHT22;9119;50.932;5.342;2022-12-07T06:57:27;4.70;99.90
17988;DHT22;9119;50.932;5.342;2022-12-07T06:59:53;4.80;99.90
17988;DHT22;9119;50.932;5.342;2022-12-07T07:02:19;4.70;99.90
17988;DHT22;9119;50.932;5.342;2022-12-07T07:04:45;4.80;99.90
17988;DHT22;9119;50.932;5.342;2022-12-07T07:07:10;4.80;99.90
17988;DHT22;9119;50.932;5.342;2022-12-07T07:09:36;4.80;99.90
17988;DHT22;9119;50.932;5.342;2022-12-07T07:12:02;4.80;99.90
17988;DHT22;9119;50.932;5.342;2022-12-07T07:14:27;4.70;99.90
17988;DHT22;9119;50.932;5.342;2022-12-07T07:16:53;4.70;99.90
17988;DHT22;9119;50.932;5.342;2022-12-07T07:19:19;4.70;99.90
17988;DHT22;9119;50.932;5.342;2022-12-07T07:21:44;4.70;99.90
17988;DHT22;9119;50.932;5.342;2022-12-07T07:24:10;4.70;99.90
17988;DHT22;9119;50.932;5.342;2022-12-07T07:26:36;4.60;99.90
17988;DHT22;9119;50.932;5.342;2022-12-07T07:29:01;4.80;99.90
17988;DHT22;9119;50.932;5.342;2022-12-07T07:31:27;4.60;99.90
17988;DHT22;9119;50.932;5.342;2022-12-07T07:33:53;4.80;99.90
17988;DHT22;9119;50.932;5.342;2022-12-07T07:36:18;4.70;99.90
17988;DHT22;9119;50.932;5.342;2022-12-07T07:38:44;4.80;99.90
17988;DHT22;9119;50.932;5.342;2022-12-07T07:41:10;4.60;99.90
17988;DHT22;9119;50.932;5.342;2022-12-07T07:43:36;4.60;99.90
17988;DHT22;9119;50.932;5.342;2022-12-07T07:46:01;4.60;99.90
17988;DHT22;9119;50.932;5.342;2022-12-07T07:48:27;4.60;99.90
17988;DHT22;9119;50.932;5.342;2022-12-07T07:50:53;4.50;99.90
17988;DHT22;9119;50.932;5.342;2022-12-07T07:53:18;4.50;99.90
17988;DHT22;9119;50.932;5.342;2022-12-07T07:55:51;4.50;99.90
17988;DHT22;9119;50.932;5.342;2022-12-07T07:58:18;4.50;99.90
17988;DHT22;9119;50.932;5.342;2022-12-07T08:00:43;4.60;99.90
17988;DHT22;9119;50.932;5.342;2022-12-07T08:03:09;4.40;99.90
17988;DHT22;9119;50.932;5.342;2022-12-07T08:05:37;4.40;99.90
17988;DHT22;9119;50.932;5.342;2022-12-07T08:08:03;4.40;99.90
17988;DHT22;9119;50.932;5.342;2022-12-07T08:10:29;4.40;99.90
17988;DHT22;9119;50.932;5.342;2022-12-07T08:12:54;4.30;99.90
17988;DHT22;9119;50.932;5.342;2022-12-07T08:15:44;4.30;99.90
17988;DHT22;9119;50.932;5.342;2022-12-07T08:18:11;4.30;99.90
17988;DHT22;9119;50.932;5.342;2022-12-07T08:20:38;4.50;99.90
17988;DHT22;9119;50.932;5.342;2022-12-07T08:23:06;4.40;99.90
17988;DHT22;9119;50.932;5.342;2022-12-07T08:25:32;4.50;99.90
17988;DHT22;9119;50.932;5.342;2022-12-07T08:27:58;4.60;99.90
17988;DHT22;9119;50.932;5.342;2022-12-07T08:30:24;4.60;99.90
17988;DHT22;9119;50.932;5.342;2022-12-07T08:32:50;4.70;99.90
17988;DHT22;9119;50.932;5.342;2022-12-07T08:35:16;5.00;99.90
17988;DHT22;9119;50.932;5.342;2022-12-07T08:37:41;4.90;99.90
17988;DHT22;9119;50.932;5.342;2022-12-07T08:40:09;4.70;99.90
17988;DHT22;9119;50.932;5.342;2022-12-07T08:42:35;4.70;99.90
17988;DHT22;9119;50.932;5.342;2022-12-07T08:45:08;4.80;99.90
17988;DHT22;9119;50.932;5.342;2022-12-07T08:47:43;4.80;99.90
17988;DHT22;9119;50.932;5.342;2022-12-07T08:50:10;5.00;99.90
17988;DHT22;9119;50.932;5.342;2022-12-07T08:52:37;5.00;99.90
17988;DHT22;9119;50.932;5.342;2022-12-07T08:55:04;5.00;99.90
17988;DHT22;9119;50.932;5.342;2022-12-07T08:57:32;5.10;99.90
17988;DHT22;9119;50.932;5.342;2022-12-07T08:59:59;5.10;99.90
17988;DHT22;9119;50.932;5.342;2022-12-07T09:02:24;5.20;99.90
17988;DHT22;9119;50.932;5.342;2022-12-07T09:04:53;5.40;99.90
17988;DHT22;9119;50.932;5.342;2022-12-07T09:07:18;5.30;99.90
17988;DHT22;9119;50.932;5.342;2022-12-07T09:09:44;5.10;99.90
17988;DHT22;9119;50.932;5.342;2022-12-07T09:12:10;5.00;99.90
17988;DHT22;9119;50.932;5.342;2022-12-07T09:14:36;5.10;99.90
17988;DHT22;9119;50.932;5.342;2022-12-07T09:17:09;5.10;99.90
17988;DHT22;9119;50.932;5.342;2022-12-07T09:19:35;5.30;99.90
17988;DHT22;9119;50.932;5.342;2022-12-07T09:22:02;5.40;99.90
17988;DHT22;9119;50.932;5.342;2022-12-07T09:24:27;5.30;99.90
17988;DHT22;9119;50.932;5.342;2022-12-07T09:26:53;5.20;99.90
17988;DHT22;9119;50.932;5.342;2022-12-07T09:29:19;5.40;99.90
17988;DHT22;9119;50.932;5.342;2022-12-07T09:31:45;5.40;99.90
17988;DHT22;9119;50.932;5.342;2022-12-07T09:34:10;5.40;99.90
17988;DHT22;9119;50.932;5.342;2022-12-07T09:36:36;5.50;99.90
17988;DHT22;9119;50.932;5.342;2022-12-07T09:39:02;5.40;99.90
17988;DHT22;9119;50.932;5.342;2022-12-07T09:41:31;5.40;99.90
17988;DHT22;9119;50.932;5.342;2022-12-07T09:47:00;5.40;99.90
17988;DHT22;9119;50.932;5.342;2022-12-07T09:49:28;5.50;99.90
17988;DHT22;9119;50.932;5.342;2022-12-07T09:52:01;5.50;99.90
17988;DHT22;9119;50.932;5.342;2022-12-07T09:54:29;6.10;99.90
17988;DHT22;9119;50.932;5.342;2022-12-07T09:56:55;6.60;99.90
17988;DHT22;9119;50.932;5.342;2022-12-07T09:59:21;6.70;99.90
17988;DHT22;9119;50.932;5.342;2022-12-07T10:01:49;7.00;99.90
17988;DHT22;9119;50.932;5.342;2022-12-07T10:04:23;7.10;99.90
17988;DHT22;9119;50.932;5.342;2022-12-07T10:06:50;7.10;99.90
17988;DHT22;9119;50.932;5.342;2022-12-07T10:09:19;7.20;99.90
17988;DHT22;9119;50.932;5.342;2022-12-07T10:14:30;7.30;99.90
17988;DHT22;9119;50.932;5.342;2022-12-07T10:16:56;7.30;99.90
17988;DHT22;9119;50.932;5.342;2022-12-07T10:19:31;7.50;99.90
17988;DHT22;9119;50.932;5.342;2022-12-07T10:22:13;7.70;99.90
17988;DHT22;9119;50.932;5.342;2022-12-07T10:24:40;7.60;99.90
17988;DHT22;9119;50.932;5.342;2022-12-07T10:27:28;7.40;99.90
17988;DHT22;9119;50.932;5.342;2022-12-07T10:29:54;6.90;99.90
17988;DHT22;9119;50.932;5.342;2022-12-07T10:35:27;6.60;99.90
17988;DHT22;9119;50.932;5.342;2022-12-07T10:37:54;6.50;99.90
17988;DHT22;9119;50.932;5.342;2022-12-07T10:40:27;6.40;99.90
17988;DHT22;9119;50.932;5.342;2022-12-07T10:43:23;6.40;99.90
17988;DHT22;9119;50.932;5.342;2022-12-07T10:51:54;6.40;99.90
17988;DHT22;9119;50.932;5.342;2022-12-07T10:54:36;6.50;99.90
17988;DHT22;9119;50.932;5.342;2022-12-07T10:59:58;6.40;99.90
17988;DHT22;9119;50.932;5.342;2022-12-07T11:05:42;6.40;99.90
17988;DHT22;9119;50.932;5.342;2022-12-07T11:24:19;6.40;99.90
17988;DHT22;9119;50.932;5.342;2022-12-07T11:26:56;6.50;99.90
17988;DHT22;9119;50.932;5.342;2022-12-07T11:32:15;6.40;99.90
17988;DHT22;9119;50.932;5.342;2022-12-07T11:37:35;6.80;99.90
17988;DHT22;9119;50.932;5.342;2022-12-07T11:40:20;6.60;99.90
17988;DHT22;9119;50.932;5.342;2022-12-07T11:42:55;6.70;99.90
17988;DHT22;9119;50.932;5.342;2022-12-07T11:45:27;6.80;99.90
17988;DHT22;9119;50.932;5.342;2022-12-07T11:48:02;6.80;99.90
17988;DHT22;9119;50.932;5.342;2022-12-07T11:50:48;6.80;99.90
17988;DHT22;9119;50.932;5.342;2022-12-07T11:53:21;6.70;99.90
17988;DHT22;9119;50.932;5.342;2022-12-07T12:03:47;6.90;99.90
17988;DHT22;9119;50.932;5.342;2022-12-07T12:06:14;7.00;99.90
17988;DHT22;9119;50.932;5.342;2022-12-07T12:21:57;6.90;99.90
17988;DHT22;9119;50.932;5.342;2022-12-07T12:24:27;6.90;99.90
17988;DHT22;9119;50.932;5.342;2022-12-07T12:27:03;7.00;99.90
17988;DHT22;9119;50.932;5.342;2022-12-07T12:29:34;6.90;99.90
17988;DHT22;9119;50.932;5.342;2022-12-07T12:32:39;7.00;99.90
17988;DHT22;9119;50.932;5.342;2022-12-07T12:37:53;7.10;99.90
17988;DHT22;9119;50.932;5.342;2022-12-07T12:42:54;7.00;99.90
17988;DHT22;9119;50.932;5.342;2022-12-07T12:45:32;7.00;99.90
17988;DHT22;9119;50.932;5.342;2022-12-07T12:48:46;7.10;99.90
17988;DHT22;9119;50.932;5.342;2022-12-07T12:50:47;7.10;99.90
17988;DHT22;9119;50.932;5.342;2022-12-07T12:53:23;7.00;99.90
17988;DHT22;9119;50.932;5.342;2022-12-07T12:56:19;7.00;99.90
17988;DHT22;9119;50.932;5.342;2022-12-07T12:58:47;7.10;99.90
17988;DHT22;9119;50.932;5.342;2022-12-07T13:04:02;7.00;99.90
17988;DHT22;9119;50.932;5.342;2022-12-07T13:08:58;6.90;99.90
17988;DHT22;9119;50.932;5.342;2022-12-07T13:11:33;7.00;99.90
17988;DHT22;9119;50.932;5.342;2022-12-07T13:17:03;7.00;99.90
17988;DHT22;9119;50.932;5.342;2022-12-07T13:22:35;7.10;99.90
17988;DHT22;9119;50.932;5.342;2022-12-07T13:25:33;6.90;99.90
17988;DHT22;9119;50.932;5.342;2022-12-07T13:28:08;6.90;99.90
17988;DHT22;9119;50.932;5.342;2022-12-07T13:33:35;6.90;99.90
17988;DHT22;9119;50.932;5.342;2022-12-07T13:36:00;6.90;99.90
17988;DHT22;9119;50.932;5.342;2022-12-07T13:38:30;6.70;99.90
17988;DHT22;9119;50.932;5.342;2022-12-07T13:43:49;6.80;99.90
17988;DHT22;9119;50.932;5.342;2022-12-07T13:46:17;6.80;99.90
17988;DHT22;9119;50.932;5.342;2022-12-07T13:48:47;6.90;99.90
17988;DHT22;9119;50.932;5.342;2022-12-07T13:51:26;6.90;99.90
17988;DHT22;9119;50.932;5.342;2022-12-07T13:54:00;6.90;99.90
17988;DHT22;9119;50.932;5.342;2022-12-07T13:56:31;7.00;99.90
17988;DHT22;9119;50.932;5.342;2022-12-07T13:58:57;6.90;99.90
17988;DHT22;9119;50.932;5.342;2022-12-07T14:01:24;6.90;99.90
17988;DHT22;9119;50.932;5.342;2022-12-07T14:03:50;7.20;99.90
17988;DHT22;9119;50.932;5.342;2022-12-07T14:06:25;6.90;99.90
17988;DHT22;9119;50.932;5.342;2022-12-07T14:09:14;6.80;99.90
17988;DHT22;9119;50.932;5.342;2022-12-07T14:11:42;6.80;99.90
17988;DHT22;9119;50.932;5.342;2022-12-07T14:14:22;6.70;99.90
17988;DHT22;9119;50.932;5.342;2022-12-07T14:17:29;6.80;99.90
17988;DHT22;9119;50.932;5.342;2022-12-07T14:20:00;6.70;99.90
17988;DHT22;9119;50.932;5.342;2022-12-07T14:22:33;6.80;99.90
17988;DHT22;9119;50.932;5.342;2022-12-07T14:27:32;6.80;99.90
17988;DHT22;9119;50.932;5.342;2022-12-07T14:30:00;6.70;99.90
17988;DHT22;9119;50.932;5.342;2022-12-07T14:32:29;6.70;99.90
17988;DHT22;9119;50.932;5.342;2022-12-07T14:34:56;6.80;99.90
17988;DHT22;9119;50.932;5.342;2022-12-07T14:37:24;6.60;99.90
17988;DHT22;9119;50.932;5.342;2022-12-07T14:39:50;6.60;99.90
17988;DHT22;9119;50.932;5.342;2022-12-07T14:42:16;6.70;99.90
17988;DHT22;9119;50.932;5.342;2022-12-07T14:44:43;6.80;99.90
17988;DHT22;9119;50.932;5.342;2022-12-07T14:47:10;6.80;99.90
17988;DHT22;9119;50.932;5.342;2022-12-07T14:49:36;6.80;99.90
17988;DHT22;9119;50.932;5.342;2022-12-07T14:52:02;6.70;99.90
17988;DHT22;9119;50.932;5.342;2022-12-07T14:54:31;6.70;99.90
17988;DHT22;9119;50.932;5.342;2022-12-07T14:56:58;6.70;99.90
17988;DHT22;9119;50.932;5.342;2022-12-07T14:59:23;6.70;99.90
17988;DHT22;9119;50.932;5.342;2022-12-07T15:01:49;6.70;99.90
17988;DHT22;9119;50.932;5.342;2022-12-07T15:04:15;6.70;99.90
17988;DHT22;9119;50.932;5.342;2022-12-07T15:06:41;6.70;99.90
17988;DHT22;9119;50.932;5.342;2022-12-07T15:09:10;6.70;99.90
17988;DHT22;9119;50.932;5.342;2022-12-07T15:11:36;6.80;99.90
17988;DHT22;9119;50.932;5.342;2022-12-07T15:14:02;6.70;99.90
17988;DHT22;9119;50.932;5.342;2022-12-07T15:16:35;6.70;99.90
17988;DHT22;9119;50.932;5.342;2022-12-07T15:19:01;6.60;99.90
17988;DHT22;9119;50.932;5.342;2022-12-07T15:21:27;6.50;99.90
17988;DHT22;9119;50.932;5.342;2022-12-07T15:23:53;6.60;99.90
17988;DHT22;9119;50.932;5.342;2022-12-07T15:26:19;6.50;99.90
17988;DHT22;9119;50.932;5.342;2022-12-07T15:28:45;6.50;99.90
17988;DHT22;9119;50.932;5.342;2022-12-07T15:31:12;6.60;99.90
17988;DHT22;9119;50.932;5.342;2022-12-07T15:33:38;6.60;99.90
17988;DHT22;9119;50.932;5.342;2022-12-07T15:36:04;6.60;99.90
17988;DHT22;9119;50.932;5.342;2022-12-07T15:38:30;6.60;99.90
17988;DHT22;9119;50.932;5.342;2022-12-07T15:40:56;6.60;99.90
17988;DHT22;9119;50.932;5.342;2022-12-07T15:43:22;6.60;99.90
17988;DHT22;9119;50.932;5.342;2022-12-07T15:46:06;6.60;99.90
17988;DHT22;9119;50.932;5.342;2022-12-07T15:48:32;6.90;99.90
17988;DHT22;9119;50.932;5.342;2022-12-07T15:51:08;6.60;99.90
17988;DHT22;9119;50.932;5.342;2022-12-07T15:53:35;6.60;99.90
17988;DHT22;9119;50.932;5.342;2022-12-07T15:56:01;6.70;99.90
17988;DHT22;9119;50.932;5.342;2022-12-07T15:58:31;6.30;99.90
17988;DHT22;9119;50.932;5.342;2022-12-07T16:00:57;6.30;99.90
17988;DHT22;9119;50.932;5.342;2022-12-07T16:03:22;6.20;99.90
17988;DHT22;9119;50.932;5.342;2022-12-07T16:05:49;6.10;99.90
17988;DHT22;9119;50.932;5.342;2022-12-07T16:08:15;6.10;99.90
17988;DHT22;9119;50.932;5.342;2022-12-07T16:10:41;6.10;99.90
17988;DHT22;9119;50.932;5.342;2022-12-07T16:13:10;6.00;99.90
17988;DHT22;9119;50.932;5.342;2022-12-07T16:15:40;6.00;99.90
17988;DHT22;9119;50.932;5.342;2022-12-07T16:18:06;6.00;99.90
17988;DHT22;9119;50.932;5.342;2022-12-07T16:20:32;6.20;99.90
17988;DHT22;9119;50.932;5.342;2022-12-07T16:22:58;6.00;99.90
17988;DHT22;9119;50.932;5.342;2022-12-07T16:25:24;6.00;99.90
17988;DHT22;9119;50.932;5.342;2022-12-07T16:27:51;5.90;99.90
17988;DHT22;9119;50.932;5.342;2022-12-07T16:30:16;6.00;99.90
17988;DHT22;9119;50.932;5.342;2022-12-07T16:32:42;6.00;99.90
17988;DHT22;9119;50.932;5.342;2022-12-07T16:35:09;6.00;99.90
17988;DHT22;9119;50.932;5.342;2022-12-07T16:37:35;6.00;99.90
17988;DHT22;9119;50.932;5.342;2022-12-07T16:40:01;6.30;99.90
17988;DHT22;9119;50.932;5.342;2022-12-07T16:42:27;6.00;99.90
17988;DHT22;9119;50.932;5.342;2022-12-07T16:44:56;6.00;99.90
17988;DHT22;9119;50.932;5.342;2022-12-07T16:47:22;6.10;99.90
17988;DHT22;9119;50.932;5.342;2022-12-07T16:49:47;6.10;99.90
17988;DHT22;9119;50.932;5.342;2022-12-07T16:52:13;6.10;99.90
17988;DHT22;9119;50.932;5.342;2022-12-07T16:54:39;6.10;99.90
17988;DHT22;9119;50.932;5.342;2022-12-07T16:57:04;5.90;99.90
17988;DHT22;9119;50.932;5.342;2022-12-07T16:59:30;6.10;99.90
17988;DHT22;9119;50.932;5.342;2022-12-07T17:01:58;6.00;99.90
17988;DHT22;9119;50.932;5.342;2022-12-07T17:04:24;5.90;99.90
17988;DHT22;9119;50.932;5.342;2022-12-07T17:06:49;5.90;99.90
17988;DHT22;9119;50.932;5.342;2022-12-07T17:09:15;5.80;99.90
17988;DHT22;9119;50.932;5.342;2022-12-07T17:11:43;6.10;99.90
17988;DHT22;9119;50.932;5.342;2022-12-07T17:14:09;5.90;99.90
17988;DHT22;9119;50.932;5.342;2022-12-07T17:16:54;5.80;99.90
17988;DHT22;9119;50.932;5.342;2022-12-07T17:19:20;5.80;99.90
17988;DHT22;9119;50.932;5.342;2022-12-07T17:21:46;5.80;99.90
17988;DHT22;9119;50.932;5.342;2022-12-07T17:24:14;5.70;99.90
17988;DHT22;9119;50.932;5.342;2022-12-07T17:26:42;5.70;99.90
17988;DHT22;9119;50.932;5.342;2022-12-07T17:29:10;5.70;99.90
17988;DHT22;9119;50.932;5.342;2022-12-07T17:31:36;5.70;99.90
17988;DHT22;9119;50.932;5.342;2022-12-07T17:34:02;5.70;99.90
17988;DHT22;9119;50.932;5.342;2022-12-07T17:36:29;5.70;99.90
17988;DHT22;9119;50.932;5.342;2022-12-07T17:38:55;5.70;99.90
17988;DHT22;9119;50.932;5.342;2022-12-07T17:41:26;5.70;99.90
17988;DHT22;9119;50.932;5.342;2022-12-07T17:44:13;5.70;99.90
17988;DHT22;9119;50.932;5.342;2022-12-07T17:46:39;5.70;99.90
17988;DHT22;9119;50.932;5.342;2022-12-07T17:49:05;5.70;99.90
17988;DHT22;9119;50.932;5.342;2022-12-07T17:51:32;5.70;99.90
17988;DHT22;9119;50.932;5.342;2022-12-07T17:54:16;5.70;99.90
17988;DHT22;9119;50.932;5.342;2022-12-07T17:56:42;5.60;99.90
17988;DHT22;9119;50.932;5.342;2022-12-07T17:59:08;5.90;99.90